createdAt,value
2018-01-29T00:01:02.690Z,9.93
2018-01-29T00:03:30.249Z,10.30
2018-01-29T00:05:57.808Z,8.13
2018-01-29T00:08:25.586Z,5.30
2018-01-29T00:10:53.066Z,9.30
2018-01-29T00:13:21.440Z,7.30
2018-01-29T00:15:48.967Z,9.63
2018-01-29T00:18:16.374Z,8.60
2018-01-29T00:20:43.882Z,7.17
2018-01-29T00:23:11.311Z,6.80
2018-01-29T00:25:38.795Z,7.33
2018-01-29T00:28:06.355Z,7.67
2018-01-29T00:30:33.917Z,7.30
2018-01-29T00:33:01.473Z,9.03
2018-01-29T00:35:29.033Z,9.60
2018-01-29T00:37:56.595Z,10.87
2018-01-29T00:40:24.050Z,7.43
2018-01-29T00:42:51.609Z,8.80
2018-01-29T00:45:19.168Z,7.97
2018-01-29T00:47:46.560Z,8.20
2018-01-29T00:50:14.185Z,11.30
2018-01-29T00:52:41.680Z,7.40
2018-01-29T00:55:09.202Z,7.63
2018-01-29T00:57:36.692Z,8.00
2018-01-29T01:00:04.218Z,7.07
2018-01-29T01:02:31.777Z,7.83
2018-01-29T01:04:59.337Z,8.67
2018-01-29T01:07:26.897Z,8.47
2018-01-29T01:09:54.456Z,6.93
2018-01-29T01:12:22.015Z,9.13
2018-01-29T01:14:49.575Z,8.00
2018-01-29T01:17:17.134Z,8.80
2018-01-29T01:19:44.694Z,10.80
2018-01-29T01:22:12.152Z,8.20
2018-01-29T01:24:39.813Z,7.33
2018-01-29T01:27:07.446Z,9.43
2018-01-29T01:29:34.970Z,10.33
2018-01-29T01:32:02.592Z,11.50
2018-01-29T01:34:30.152Z,9.47
2018-01-29T01:36:57.713Z,9.63
2018-01-29T01:39:25.273Z,10.10
2018-01-29T01:41:52.831Z,8.73
2018-01-29T01:44:20.755Z,8.70
2018-01-29T01:46:48.256Z,7.93
2018-01-29T01:49:15.729Z,7.00
2018-01-29T01:51:43.272Z,8.37
2018-01-29T01:54:10.787Z,8.13
2018-01-29T01:56:38.289Z,9.10
2018-01-29T01:59:05.779Z,9.33
2018-01-29T02:01:33.236Z,8.77
2018-01-29T02:04:00.764Z,9.40
2018-01-29T02:06:28.168Z,9.40
2018-01-29T02:08:59.176Z,10.57
2018-01-29T02:11:26.821Z,8.73
2018-01-29T02:13:54.381Z,11.23
2018-01-29T02:16:21.942Z,7.40
2018-01-29T02:18:49.502Z,9.33
2018-01-29T02:21:16.992Z,10.90
2018-01-29T02:23:44.468Z,10.80
2018-01-29T02:26:11.974Z,7.63
2018-01-29T02:28:39.532Z,7.23
2018-01-29T02:31:07.024Z,9.47
2018-01-29T02:33:34.480Z,9.80
2018-01-29T02:36:02.006Z,9.23
2018-01-29T02:38:29.467Z,8.73
2018-01-29T02:40:57.022Z,8.57
2018-01-29T02:43:24.581Z,10.07
2018-01-29T02:45:51.996Z,10.80
2018-01-29T02:48:19.496Z,10.40
2018-01-29T02:50:47.054Z,11.87
2018-01-29T02:53:14.616Z,9.17
2018-01-29T02:55:42.114Z,10.47
2018-01-29T02:58:09.669Z,11.13
2018-01-29T03:00:37.064Z,10.27
2018-01-29T03:03:04.516Z,9.77
2018-01-29T03:05:32.040Z,10.03
2018-01-29T03:07:59.561Z,9.33
2018-01-29T03:10:27.121Z,11.70
2018-01-29T03:12:54.552Z,10.70
2018-01-29T03:15:22.137Z,10.70
2018-01-29T03:17:49.697Z,9.90
2018-01-29T03:20:17.188Z,10.83
2018-01-29T03:22:44.628Z,10.03
2018-01-29T03:25:12.171Z,11.23
2018-01-29T03:27:39.665Z,10.00
2018-01-29T03:30:07.131Z,13.10
2018-01-29T03:32:34.532Z,13.50
2018-01-29T03:35:02.101Z,11.67
2018-01-29T03:37:29.716Z,14.40
2018-01-29T03:39:57.219Z,11.00
2018-01-29T03:42:24.779Z,22.23
2018-01-29T03:44:52.273Z,11.07
2018-01-29T03:47:19.795Z,10.10
2018-01-29T03:49:47.192Z,11.73
2018-01-29T03:52:15.426Z,11.53
2018-01-29T03:54:42.920Z,10.70
2018-01-29T03:57:10.377Z,12.00
2018-01-29T03:59:38.105Z,9.73
2018-01-29T04:02:05.596Z,9.13
2018-01-29T04:04:33.122Z,11.83
2018-01-29T04:07:00.681Z,8.37
2018-01-29T04:09:28.152Z,10.07
2018-01-29T04:11:55.697Z,10.00
2018-01-29T04:14:23.155Z,8.40
2018-01-29T04:16:50.714Z,9.27
2018-01-29T04:19:18.273Z,8.97
2018-01-29T04:21:45.834Z,8.80
2018-01-29T04:24:13.333Z,8.10
2018-01-29T04:26:40.850Z,9.00
2018-01-29T04:29:08.409Z,10.13
2018-01-29T04:31:35.968Z,10.60
2018-01-29T04:34:03.528Z,8.70
2018-01-29T04:36:31.024Z,9.33
2018-01-29T04:38:59.773Z,8.30
2018-01-29T04:41:27.333Z,9.70
2018-01-29T04:43:54.837Z,8.03
2018-01-29T04:46:24.191Z,9.13
2018-01-29T04:48:51.683Z,10.07
2018-01-29T04:51:19.212Z,10.50
2018-01-29T04:53:46.768Z,9.80
2018-01-29T04:56:14.327Z,11.07
2018-01-29T04:58:41.886Z,10.00
2018-01-29T05:01:09.382Z,11.07
2018-01-29T05:03:36.903Z,10.00
2018-01-29T05:06:04.463Z,12.47
2018-01-29T05:08:32.023Z,10.37
2018-01-29T05:10:59.515Z,11.07
2018-01-29T05:13:27.140Z,10.67
2018-01-29T05:15:54.699Z,11.47
2018-01-29T05:18:22.260Z,12.40
2018-01-29T05:20:49.723Z,12.80
2018-01-29T05:23:17.281Z,12.60
2018-01-29T05:25:44.836Z,9.60
2018-01-29T05:28:12.328Z,11.40
2018-01-29T05:30:39.852Z,10.73
2018-01-29T05:33:07.256Z,12.37
2018-01-29T05:35:49.619Z,11.43
2018-01-29T05:38:17.173Z,12.30
2018-01-29T05:40:44.736Z,13.00
2018-01-29T05:43:12.497Z,13.77
2018-01-29T05:45:40.056Z,9.87
2018-01-29T05:48:07.616Z,11.70
2018-01-29T05:50:35.128Z,14.93
2018-01-29T05:53:02.576Z,13.97
2018-01-29T05:55:30.197Z,13.50
2018-01-29T05:57:57.752Z,12.80
2018-01-29T06:00:25.311Z,9.13
2018-01-29T06:02:52.871Z,13.77
2018-01-29T06:05:20.432Z,12.67
2018-01-29T06:07:48.026Z,15.13
2018-01-29T06:10:15.549Z,11.90
2018-01-29T06:12:43.040Z,11.70
2018-01-29T06:15:10.770Z,14.10
2018-01-29T06:17:38.432Z,14.53
2018-01-29T06:20:06.766Z,14.53
2018-01-29T06:22:34.417Z,15.17
2018-01-29T06:25:01.876Z,11.43
2018-01-29T06:27:29.436Z,14.00
2018-01-29T06:29:56.882Z,13.30
2018-01-29T06:32:24.404Z,13.13
2018-01-29T06:34:51.909Z,10.57
2018-01-29T06:37:19.522Z,12.10
2018-01-29T06:39:47.081Z,16.23
2018-01-29T06:42:14.640Z,11.20
2018-01-29T06:44:42.200Z,14.73
2018-01-29T06:47:09.600Z,10.77
2018-01-29T06:49:37.218Z,12.17
2018-01-29T06:52:04.644Z,7.90
2018-01-29T06:54:32.654Z,9.13
2018-01-29T06:57:00.134Z,8.97
2018-01-29T06:59:27.557Z,6.23
2018-01-29T07:01:55.769Z,7.80
2018-01-29T07:04:23.290Z,8.50
2018-01-29T07:06:50.786Z,8.00
2018-01-29T07:09:18.241Z,9.93
2018-01-29T07:11:45.765Z,9.17
2018-01-29T07:14:13.222Z,8.00
2018-01-29T07:16:40.781Z,8.23
2018-01-29T07:19:08.339Z,7.47
2018-01-29T07:21:35.899Z,7.37
2018-01-29T07:24:03.356Z,5.90
2018-01-29T07:26:30.916Z,7.37
2018-01-29T07:28:58.420Z,8.03
2018-01-29T07:31:25.864Z,7.37
2018-01-29T07:33:53.319Z,6.37
2018-01-29T07:36:20.949Z,6.30
2018-01-29T07:38:48.441Z,6.30
2018-01-29T07:41:16.170Z,6.33
2018-01-29T07:43:43.731Z,5.07
2018-01-29T07:46:11.597Z,5.17
2018-01-29T07:48:39.016Z,4.97
2018-01-29T07:51:06.444Z,6.10
2018-01-29T07:53:34.050Z,5.13
2018-01-29T07:56:01.936Z,5.20
2018-01-29T07:58:29.430Z,4.33
2018-01-29T08:00:57.061Z,4.70
2018-01-29T08:03:24.556Z,4.23
2018-01-29T08:05:52.072Z,5.17
2018-01-29T08:08:19.632Z,3.67
2018-01-29T08:10:47.137Z,4.33
2018-01-29T08:13:15.159Z,4.40
2018-01-29T08:15:46.715Z,4.57
2018-01-29T08:18:14.379Z,3.53
2018-01-29T08:20:41.879Z,3.70
2018-01-29T08:23:09.308Z,3.63
2018-01-29T08:25:36.847Z,4.50
2018-01-29T08:28:04.509Z,4.20
2018-01-29T08:30:32.068Z,4.67
2018-01-29T08:32:59.628Z,7.30
2018-01-29T08:35:27.122Z,4.57
2018-01-29T08:37:54.653Z,5.10
2018-01-29T08:40:22.155Z,5.30
2018-01-29T08:42:49.662Z,6.53
2018-01-29T08:45:17.118Z,6.10
2018-01-29T08:47:44.621Z,5.83
2018-01-29T08:50:12.339Z,5.70
2018-01-29T08:52:39.802Z,6.93
2018-01-29T08:55:07.295Z,6.60
2018-01-29T08:57:35.018Z,5.70
2018-01-29T09:00:02.521Z,5.70
2018-01-29T09:02:30.034Z,7.10
2018-01-29T09:04:59.000Z,6.80
2018-01-29T09:07:26.587Z,6.40
2018-01-29T09:09:54.353Z,8.23
2018-01-29T09:12:21.959Z,6.43
2018-01-29T09:14:49.472Z,6.27
2018-01-29T09:17:17.077Z,6.57
2018-01-29T09:19:44.553Z,6.03
2018-01-29T09:22:12.149Z,7.00
2018-01-29T09:24:39.658Z,7.40
2018-01-29T09:27:07.164Z,6.50
2018-01-29T09:29:34.827Z,6.10
2018-01-29T09:32:02.387Z,7.90
2018-01-29T09:34:29.799Z,6.43
2018-01-29T09:36:57.351Z,5.53
2018-01-29T09:39:24.860Z,8.33
2018-01-29T09:41:52.352Z,7.47
2018-01-29T09:44:19.808Z,7.80
2018-01-29T09:46:47.277Z,8.90
2018-01-29T09:49:14.681Z,6.60
2018-01-29T09:51:42.454Z,7.70
2018-01-29T09:54:09.858Z,8.80
2018-01-29T09:56:37.366Z,9.90
2018-01-29T09:59:04.860Z,10.37
2018-01-29T10:01:32.578Z,7.70
2018-01-29T10:04:00.147Z,9.90
2018-01-29T10:06:27.740Z,7.63
2018-01-29T10:08:55.164Z,8.47
2018-01-29T10:11:22.722Z,11.77
2018-01-29T10:13:50.723Z,9.70
2018-01-29T10:16:18.460Z,13.13
2018-01-29T10:18:46.057Z,9.10
2018-01-29T10:21:14.710Z,11.80
2018-01-29T10:23:42.193Z,9.87
2018-01-29T10:26:09.720Z,11.50
2018-01-29T10:28:37.279Z,10.97
2018-01-29T10:31:04.740Z,9.37
2018-01-29T10:33:33.640Z,12.53
2018-01-29T10:36:01.185Z,9.30
2018-01-29T10:38:28.747Z,11.27
2018-01-29T10:40:56.245Z,11.90
2018-01-29T10:43:23.700Z,10.50
2018-01-29T10:45:51.222Z,11.70
2018-01-29T10:48:19.028Z,8.77
2018-01-29T10:50:46.498Z,13.40
2018-01-29T10:53:14.307Z,9.87
2018-01-29T10:55:42.174Z,11.33
2018-01-29T10:58:09.815Z,10.90
2018-01-29T11:00:42.973Z,9.67
2018-01-29T11:03:10.464Z,12.97
2018-01-29T11:05:37.989Z,9.97
2018-01-29T11:08:05.601Z,13.10
2018-01-29T11:10:33.060Z,14.60
2018-01-29T11:13:00.621Z,9.73
2018-01-29T11:15:28.177Z,10.90
2018-01-29T11:17:55.737Z,11.70
2018-01-29T11:20:23.179Z,10.83
2018-01-29T11:22:50.754Z,10.03
2018-01-29T11:25:18.315Z,12.20
2018-01-29T11:27:46.077Z,9.13
2018-01-29T11:30:13.740Z,13.00
2018-01-29T11:32:41.504Z,9.73
2018-01-29T11:35:09.062Z,10.83
2018-01-29T11:37:36.622Z,9.67
2018-01-29T11:40:04.123Z,9.97
2018-01-29T11:42:31.640Z,12.50
2018-01-29T11:44:59.226Z,13.20
2018-01-29T11:47:26.675Z,11.60
2018-01-29T11:49:54.130Z,13.63
2018-01-29T11:52:21.776Z,20.27
2018-01-29T11:54:49.538Z,8.73
2018-01-29T11:57:17.201Z,11.53
2018-01-29T11:59:44.761Z,10.17
2018-01-29T12:02:12.532Z,12.17
2018-01-29T12:04:40.022Z,15.97
2018-01-29T12:07:07.484Z,9.47
2018-01-29T12:09:35.510Z,11.20
2018-01-29T12:12:03.171Z,16.63
2018-01-29T12:14:31.291Z,12.53
2018-01-29T12:16:58.905Z,12.83
2018-01-29T12:19:30.868Z,12.93
2018-01-29T12:21:58.278Z,10.43
2018-01-29T12:24:25.781Z,12.70
2018-01-29T12:26:53.284Z,16.60
2018-01-29T12:29:20.832Z,14.30
2018-01-29T12:31:48.358Z,14.70
2018-01-29T12:34:15.849Z,14.57
2018-01-29T12:36:43.349Z,12.97
2018-01-29T12:39:11.038Z,11.50
2018-01-29T12:41:38.698Z,12.10
2018-01-29T12:44:06.154Z,9.30
2018-01-29T12:46:33.713Z,10.77
2018-01-29T12:49:01.204Z,9.33
2018-01-29T12:51:28.731Z,16.93
2018-01-29T12:53:56.290Z,10.37
2018-01-29T12:56:23.853Z,10.00
2018-01-29T12:58:52.023Z,7.17
2018-01-29T13:01:19.684Z,11.93
2018-01-29T13:03:47.244Z,17.60
2018-01-29T13:06:14.738Z,8.83
2018-01-29T13:08:42.308Z,7.83
2018-01-29T13:11:09.923Z,9.97
2018-01-29T13:13:37.530Z,8.87
2018-01-29T13:16:05.144Z,9.80
2018-01-29T13:18:36.082Z,11.43
2018-01-29T13:21:03.745Z,17.27
2018-01-29T13:23:31.508Z,9.33
2018-01-29T13:25:59.068Z,13.10
2018-01-29T13:28:26.560Z,12.27
2018-01-29T13:30:54.187Z,13.30
2018-01-29T13:33:21.592Z,13.33
2018-01-29T13:35:49.101Z,10.20
2018-01-29T13:38:16.662Z,19.70
2018-01-29T13:40:44.220Z,11.70
2018-01-29T13:43:11.714Z,15.00
2018-01-29T13:45:40.566Z,10.40
2018-01-29T13:48:08.264Z,11.57
2018-01-29T13:50:35.745Z,9.80
2018-01-29T13:53:03.349Z,12.37
2018-01-29T13:55:30.908Z,10.70
2018-01-29T13:57:58.312Z,10.60
2018-01-29T14:00:25.924Z,14.93
2018-01-29T14:02:53.484Z,9.40
2018-01-29T14:05:20.892Z,11.97
2018-01-29T14:07:48.399Z,11.90
2018-01-29T14:10:15.958Z,13.10
2018-01-29T14:12:43.619Z,9.57
2018-01-29T14:15:11.203Z,10.73
2018-01-29T14:17:38.738Z,17.03
2018-01-29T14:20:06.399Z,9.43
2018-01-29T14:22:33.862Z,11.20
2018-01-29T14:25:01.621Z,13.50
2018-01-29T14:27:29.180Z,9.30
2018-01-29T14:29:56.742Z,12.20
2018-01-29T14:32:24.232Z,11.00
2018-01-29T14:34:51.693Z,10.63
2018-01-29T14:37:19.084Z,9.50
2018-01-29T14:39:46.776Z,12.57
2018-01-29T14:42:14.332Z,14.00
2018-01-29T14:44:41.892Z,8.90
2018-01-29T14:47:09.452Z,10.10
2018-01-29T14:49:36.945Z,16.43
2018-01-29T14:52:04.468Z,11.17
2018-01-29T14:54:32.028Z,14.67
2018-01-29T14:56:59.520Z,9.67
2018-01-29T14:59:27.043Z,11.47
2018-01-29T15:01:54.604Z,15.33
2018-01-29T15:04:22.162Z,8.47
2018-01-29T15:06:49.589Z,8.67
2018-01-29T15:09:16.980Z,11.30
2018-01-29T15:11:44.534Z,8.60
2018-01-29T15:14:12.093Z,10.20
2018-01-29T15:16:39.652Z,11.53
2018-01-29T15:19:07.145Z,13.13
2018-01-29T15:21:34.880Z,16.50
2018-01-29T15:24:02.434Z,9.37
2018-01-29T15:26:29.992Z,11.50
2018-01-29T15:28:57.552Z,10.43
2018-01-29T15:31:25.009Z,11.73
2018-01-29T15:33:52.500Z,15.00
2018-01-29T15:36:19.940Z,15.07
2018-01-29T15:38:47.484Z,13.53
2018-01-29T15:41:15.043Z,11.00
2018-01-29T15:43:42.602Z,10.10
2018-01-29T15:46:10.097Z,12.60
2018-01-29T15:48:37.552Z,12.70
2018-01-29T15:51:05.012Z,13.10
2018-01-29T15:53:32.532Z,13.47
2018-01-29T15:56:00.029Z,15.93
2018-01-29T15:58:27.550Z,8.40
2018-01-29T16:00:55.313Z,16.97
2018-01-29T16:03:22.872Z,10.83
2018-01-29T16:05:50.432Z,13.73
2018-01-29T16:08:18.110Z,10.57
2018-01-29T16:10:45.553Z,12.10
2018-01-29T16:13:13.044Z,11.07
2018-01-29T16:15:40.568Z,13.40
2018-01-29T16:18:08.061Z,12.10
2018-01-29T16:20:35.584Z,11.63
2018-01-29T16:23:03.076Z,11.67
2018-01-29T16:25:30.599Z,9.53
2018-01-29T16:27:58.058Z,10.87
2018-01-29T16:30:25.548Z,10.23
2018-01-29T16:32:53.176Z,11.73
2018-01-29T16:35:20.735Z,13.77
2018-01-29T16:37:48.193Z,11.03
2018-01-29T16:40:15.752Z,10.07
2018-01-29T16:42:43.246Z,12.20
2018-01-29T16:45:10.715Z,12.20
2018-01-29T16:47:38.224Z,13.00
2018-01-29T16:50:05.784Z,18.00
2018-01-29T16:52:33.287Z,14.90
2018-01-29T16:55:00.838Z,14.40
2018-01-29T16:57:28.360Z,16.27
2018-01-29T16:59:55.921Z,17.17
2018-01-29T17:02:23.376Z,16.07
2018-01-29T17:04:50.936Z,18.80
2018-01-29T17:07:18.397Z,20.27
2018-01-29T17:09:45.954Z,17.30
2018-01-29T17:12:13.512Z,17.60
2018-01-29T17:14:41.073Z,23.20
2018-01-29T17:17:08.632Z,19.43
2018-01-29T17:19:36.190Z,13.97
2018-01-29T17:22:03.750Z,19.87
2018-01-29T17:24:31.314Z,12.87
2018-01-29T17:26:58.720Z,14.83
2018-01-29T17:29:26.152Z,14.10
2018-01-29T17:31:53.681Z,12.10
2018-01-29T17:34:21.177Z,11.63
2018-01-29T17:36:48.699Z,13.20
2018-01-29T17:39:16.197Z,15.70
2018-01-29T17:41:46.728Z,14.43
2018-01-29T17:44:14.344Z,12.80
2018-01-29T17:46:48.156Z,18.30
2018-01-29T17:49:16.125Z,16.10
2018-01-29T17:51:43.533Z,13.95
2018-01-29T17:54:11.136Z,14.90
2018-01-29T17:56:39.311Z,15.30
2018-01-29T17:59:06.808Z,15.87
2018-01-29T18:01:34.211Z,15.40
2018-01-29T18:04:01.886Z,13.77
2018-01-29T18:06:39.540Z,17.43
2018-01-29T18:09:07.143Z,14.23
2018-01-29T18:11:34.752Z,18.43
2018-01-29T18:14:02.159Z,14.47
2018-01-29T18:16:29.720Z,19.97
2018-01-29T18:18:57.996Z,14.17
2018-01-29T18:21:25.657Z,16.43
2018-01-29T18:23:53.169Z,14.20
2018-01-29T18:26:21.288Z,14.77
2018-01-29T18:28:48.846Z,15.97
2018-01-29T18:31:16.291Z,14.73
2018-01-29T18:33:43.863Z,16.10
2018-01-29T18:36:11.604Z,15.90
2018-01-29T18:38:39.114Z,19.37
2018-01-29T18:41:06.645Z,19.73
2018-01-29T18:43:37.845Z,15.43
2018-01-29T18:46:05.860Z,18.90
2018-01-29T18:48:33.623Z,18.43
2018-01-29T18:51:01.184Z,20.67
2018-01-29T18:53:28.745Z,18.37
2018-01-29T18:55:56.507Z,19.80
2018-01-29T18:58:24.067Z,24.17
2018-01-29T19:00:51.626Z,20.53
2018-01-29T19:03:19.073Z,22.90
2018-01-29T19:05:46.514Z,23.37
2018-01-29T19:08:13.997Z,20.67
2018-01-29T19:10:41.704Z,24.23
2018-01-29T19:13:09.219Z,16.07
2018-01-29T19:15:36.677Z,16.93
2018-01-29T19:18:04.268Z,19.57
2018-01-29T19:20:31.716Z,20.98
2018-01-29T19:22:59.183Z,18.50
2018-01-29T19:25:26.709Z,16.10
2018-01-29T19:27:54.268Z,16.07
2018-01-29T19:30:21.827Z,18.10
2018-01-29T19:32:49.445Z,18.30
2018-01-29T19:35:17.203Z,17.50
2018-01-29T19:37:44.853Z,17.67
2018-01-29T19:40:12.428Z,13.70
2018-01-29T19:42:40.038Z,16.13
2018-01-29T19:45:07.798Z,16.37
2018-01-29T19:47:35.255Z,15.03
2018-01-29T19:50:03.231Z,12.83
2018-01-29T19:52:30.783Z,15.20
2018-01-29T19:54:58.299Z,12.17
2018-01-29T19:57:25.801Z,11.87
2018-01-29T19:59:53.390Z,15.47
2018-01-29T20:02:20.919Z,19.97
2018-01-29T20:04:48.376Z,12.93
2018-01-29T20:07:15.875Z,16.43
2018-01-29T20:09:43.393Z,17.33
2018-01-29T20:12:10.892Z,14.23
2018-01-29T20:14:38.340Z,17.23
2018-01-29T20:17:05.906Z,14.90
2018-01-29T20:19:33.404Z,23.20
2018-01-29T20:22:00.984Z,37.70
2018-01-29T20:24:28.385Z,24.13
2018-01-29T20:26:56.308Z,19.60
2018-01-29T20:29:24.075Z,14.60
2018-01-29T20:31:51.643Z,7.30
2018-01-29T20:34:19.240Z,12.33
2018-01-29T20:36:47.486Z,6.00
2018-01-29T20:39:15.028Z,7.00
2018-01-29T20:41:42.587Z,2.67
2018-01-29T20:44:10.154Z,2.33
2018-01-29T20:46:37.706Z,1.40
2018-01-29T20:49:05.181Z,1.23
2018-01-29T20:51:32.572Z,1.00
2018-01-29T20:54:00.079Z,1.40
2018-01-29T20:56:27.841Z,1.70
2018-01-29T20:58:55.400Z,3.00
2018-01-29T21:01:22.904Z,3.40
2018-01-29T21:03:50.419Z,1.87
2018-01-29T21:06:18.080Z,1.30
2018-01-29T21:08:45.471Z,2.30
2018-01-29T21:11:12.993Z,1.80
2018-01-29T21:13:40.655Z,1.37
2018-01-29T21:16:08.214Z,2.70
2018-01-29T21:18:35.654Z,3.77
2018-01-29T21:21:03.338Z,1.63
2018-01-29T21:23:30.893Z,1.53
2018-01-29T21:25:58.571Z,1.77
2018-01-29T21:28:26.148Z,1.77
2018-01-29T21:30:53.709Z,2.00
2018-01-29T21:33:21.233Z,2.03
2018-01-29T21:35:48.724Z,1.30
2018-01-29T21:38:16.167Z,2.00
2018-01-29T21:40:43.809Z,1.70
2018-01-29T21:43:11.368Z,1.50
2018-01-29T21:45:38.863Z,1.27
2018-01-29T21:48:06.334Z,3.20
2018-01-29T21:50:33.876Z,1.93
2018-01-29T21:53:01.403Z,3.57
2018-01-29T21:55:28.962Z,2.10
2018-01-29T21:57:56.376Z,1.87
2018-01-29T22:00:23.763Z,1.60
2018-01-29T22:02:51.275Z,3.03
2018-01-29T22:05:18.720Z,1.20
2018-01-29T22:07:46.187Z,1.13
2018-01-29T22:10:13.806Z,1.40
2018-01-29T22:12:41.365Z,2.07
2018-01-29T22:15:08.892Z,1.10
2018-01-29T22:17:36.415Z,1.20
2018-01-29T22:20:03.873Z,3.23
2018-01-29T22:22:31.398Z,2.30
2018-01-29T22:24:58.963Z,1.47
2018-01-29T22:27:26.517Z,1.90
2018-01-29T22:29:54.086Z,2.43
2018-01-29T22:32:21.635Z,2.40
2018-01-29T22:34:49.233Z,2.53
2018-01-29T22:37:16.757Z,1.77
2018-01-29T22:39:44.314Z,4.83
2018-01-29T22:42:11.874Z,3.53
2018-01-29T22:44:39.433Z,3.67
2018-01-29T22:47:06.827Z,1.90
2018-01-29T22:49:34.896Z,4.90
2018-01-29T22:52:02.419Z,4.93
2018-01-29T22:54:29.978Z,4.43
2018-01-29T22:56:57.472Z,5.43
2018-01-29T22:59:24.996Z,5.20
2018-01-29T23:01:52.758Z,3.80
2018-01-29T23:04:20.318Z,4.63
2018-01-29T23:06:47.713Z,4.17
2018-01-29T23:09:15.164Z,5.07
2018-01-29T23:11:42.689Z,4.37
2018-01-29T23:14:10.080Z,4.60
2018-01-29T23:16:37.603Z,2.70
2018-01-29T23:19:05.006Z,2.20
2018-01-29T23:21:32.552Z,4.20
2018-01-29T23:24:00.077Z,5.57
2018-01-29T23:26:27.635Z,3.43
2018-01-29T23:28:55.194Z,4.97
2018-01-29T23:31:22.655Z,2.77
2018-01-29T23:33:50.110Z,4.10
2018-01-29T23:36:17.669Z,13.93
2018-01-29T23:38:45.174Z,5.23
2018-01-29T23:41:12.788Z,4.23
2018-01-29T23:43:40.347Z,8.27
2018-01-29T23:46:07.905Z,6.67
2018-01-29T23:48:35.665Z,8.30
2018-01-29T23:51:03.230Z,11.97
2018-01-29T23:53:30.789Z,3.10
2018-01-29T23:55:58.350Z,10.70
2018-01-29T23:58:25.909Z,8.23
